sensor_id;sensor_type;location;lat;lon;timestamp;P1;durP1;ratioP1;P2;durP2;ratioP2
13685;SDS011;6915;48.296;8.874;2023-01-25T00:22:55;521.03;;;50.83;;
13685;SDS011;6915;48.296;8.874;2023-01-25T00:25:24;536.70;;;50.53;;
13685;SDS011;6915;48.296;8.874;2023-01-25T00:27:53;429.63;;;47.53;;
13685;SDS011;6915;48.296;8.874;2023-01-25T00:30:22;377.27;;;48.60;;
13685;SDS011;6915;48.296;8.874;2023-01-25T00:32:52;488.60;;;51.47;;
13685;SDS011;6915;48.296;8.874;2023-01-25T00:35:29;365.73;;;45.20;;
13685;SDS011;6915;48.296;8.874;2023-01-25T00:38:01;466.00;;;49.73;;
13685;SDS011;6915;48.296;8.874;2023-01-25T00:40:49;507.80;;;46.90;;
13685;SDS011;6915;48.296;8.874;2023-01-25T00:43:18;555.40;;;52.60;;
13685;SDS011;6915;48.296;8.874;2023-01-25T00:45:46;487.13;;;49.77;;
13685;SDS011;6915;48.296;8.874;2023-01-25T00:48:15;501.40;;;51.80;;
13685;SDS011;6915;48.296;8.874;2023-01-25T00:50:44;426.30;;;47.80;;
13685;SDS011;6915;48.296;8.874;2023-01-25T00:53:14;406.10;;;49.77;;
13685;SDS011;6915;48.296;8.874;2023-01-25T00:55:50;567.73;;;51.03;;
13685;SDS011;6915;48.296;8.874;2023-01-25T00:58:19;361.33;;;43.97;;
13685;SDS011;6915;48.296;8.874;2023-01-25T01:00:48;312.07;;;41.17;;
13685;SDS011;6915;48.296;8.874;2023-01-25T01:03:17;465.53;;;48.87;;
13685;SDS011;6915;48.296;8.874;2023-01-25T01:05:47;408.07;;;46.80;;
13685;SDS011;6915;48.296;8.874;2023-01-25T01:08:25;372.60;;;46.90;;
13685;SDS011;6915;48.296;8.874;2023-01-25T01:10:57;367.87;;;46.10;;
13685;SDS011;6915;48.296;8.874;2023-01-25T01:13:25;342.17;;;44.87;;
13685;SDS011;6915;48.296;8.874;2023-01-25T01:15:54;301.63;;;42.53;;
13685;SDS011;6915;48.296;8.874;2023-01-25T01:18:26;223.77;;;40.17;;
13685;SDS011;6915;48.296;8.874;2023-01-25T01:20:58;362.50;;;45.53;;
13685;SDS011;6915;48.296;8.874;2023-01-25T01:23:29;391.57;;;46.03;;
13685;SDS011;6915;48.296;8.874;2023-01-25T01:25:58;391.70;;;46.63;;
13685;SDS011;6915;48.296;8.874;2023-01-25T01:28:28;474.57;;;48.23;;
13685;SDS011;6915;48.296;8.874;2023-01-25T01:30:58;623.37;;;53.80;;
13685;SDS011;6915;48.296;8.874;2023-01-25T01:33:28;590.50;;;53.37;;
13685;SDS011;6915;48.296;8.874;2023-01-25T01:35:57;265.60;;;43.40;;
13685;SDS011;6915;48.296;8.874;2023-01-25T01:38:32;207.10;;;41.30;;
13685;SDS011;6915;48.296;8.874;2023-01-25T01:41:01;325.03;;;48.10;;
13685;SDS011;6915;48.296;8.874;2023-01-25T01:43:32;317.03;;;44.23;;
13685;SDS011;6915;48.296;8.874;2023-01-25T01:46:01;414.57;;;47.77;;
13685;SDS011;6915;48.296;8.874;2023-01-25T01:48:32;329.83;;;44.33;;
13685;SDS011;6915;48.296;8.874;2023-01-25T01:51:14;283.87;;;43.10;;
13685;SDS011;6915;48.296;8.874;2023-01-25T01:54:03;246.20;;;40.47;;
13685;SDS011;6915;48.296;8.874;2023-01-25T01:56:41;309.87;;;43.43;;
13685;SDS011;6915;48.296;8.874;2023-01-25T01:59:14;228.63;;;39.80;;
13685;SDS011;6915;48.296;8.874;2023-01-25T02:01:43;242.53;;;42.17;;
13685;SDS011;6915;48.296;8.874;2023-01-25T02:04:12;192.57;;;39.40;;
13685;SDS011;6915;48.296;8.874;2023-01-25T02:06:46;169.97;;;39.13;;
13685;SDS011;6915;48.296;8.874;2023-01-25T02:09:20;126.40;;;37.77;;
13685;SDS011;6915;48.296;8.874;2023-01-25T02:11:51;148.30;;;37.63;;
13685;SDS011;6915;48.296;8.874;2023-01-25T02:14:22;130.87;;;36.57;;
13685;SDS011;6915;48.296;8.874;2023-01-25T02:16:52;153.23;;;38.47;;
13685;SDS011;6915;48.296;8.874;2023-01-25T02:19:23;146.00;;;39.53;;
13685;SDS011;6915;48.296;8.874;2023-01-25T02:22:00;133.27;;;34.93;;
13685;SDS011;6915;48.296;8.874;2023-01-25T02:24:35;136.37;;;37.10;;
13685;SDS011;6915;48.296;8.874;2023-01-25T02:27:09;128.27;;;35.00;;
13685;SDS011;6915;48.296;8.874;2023-01-25T02:29:38;127.00;;;36.43;;
13685;SDS011;6915;48.296;8.874;2023-01-25T02:32:07;130.43;;;35.03;;
13685;SDS011;6915;48.296;8.874;2023-01-25T02:34:38;112.67;;;32.67;;
13685;SDS011;6915;48.296;8.874;2023-01-25T02:37:07;113.57;;;33.17;;
13685;SDS011;6915;48.296;8.874;2023-01-25T02:39:39;93.80;;;33.07;;
13685;SDS011;6915;48.296;8.874;2023-01-25T02:42:10;95.43;;;32.53;;
13685;SDS011;6915;48.296;8.874;2023-01-25T02:44:39;90.10;;;31.73;;
13685;SDS011;6915;48.296;8.874;2023-01-25T02:47:08;93.17;;;31.83;;
13685;SDS011;6915;48.296;8.874;2023-01-25T02:49:37;93.47;;;32.13;;
13685;SDS011;6915;48.296;8.874;2023-01-25T02:52:05;101.30;;;31.87;;
13685;SDS011;6915;48.296;8.874;2023-01-25T02:54:34;106.93;;;33.43;;
13685;SDS011;6915;48.296;8.874;2023-01-25T02:57:03;94.63;;;32.30;;
13685;SDS011;6915;48.296;8.874;2023-01-25T02:59:33;130.73;;;34.40;;
13685;SDS011;6915;48.296;8.874;2023-01-25T03:02:02;144.57;;;36.03;;
13685;SDS011;6915;48.296;8.874;2023-01-25T03:04:31;129.63;;;36.30;;
13685;SDS011;6915;48.296;8.874;2023-01-25T03:07:01;145.50;;;38.40;;
13685;SDS011;6915;48.296;8.874;2023-01-25T03:09:30;121.13;;;36.23;;
13685;SDS011;6915;48.296;8.874;2023-01-25T03:11:59;135.87;;;36.40;;
13685;SDS011;6915;48.296;8.874;2023-01-25T03:14:27;125.87;;;35.77;;
13685;SDS011;6915;48.296;8.874;2023-01-25T03:16:57;105.43;;;34.43;;
13685;SDS011;6915;48.296;8.874;2023-01-25T03:19:26;116.37;;;34.97;;
13685;SDS011;6915;48.296;8.874;2023-01-25T03:21:55;116.23;;;34.40;;
13685;SDS011;6915;48.296;8.874;2023-01-25T03:24:24;96.97;;;32.43;;
13685;SDS011;6915;48.296;8.874;2023-01-25T03:26:53;110.30;;;33.70;;
13685;SDS011;6915;48.296;8.874;2023-01-25T03:29:38;96.50;;;33.40;;
13685;SDS011;6915;48.296;8.874;2023-01-25T03:32:08;104.97;;;32.93;;
13685;SDS011;6915;48.296;8.874;2023-01-25T03:34:37;101.07;;;33.27;;
13685;SDS011;6915;48.296;8.874;2023-01-25T03:37:06;97.97;;;32.07;;
13685;SDS011;6915;48.296;8.874;2023-01-25T03:39:34;112.73;;;35.50;;
13685;SDS011;6915;48.296;8.874;2023-01-25T03:42:03;105.37;;;33.33;;
13685;SDS011;6915;48.296;8.874;2023-01-25T03:44:32;101.87;;;33.50;;
13685;SDS011;6915;48.296;8.874;2023-01-25T03:47:01;107.40;;;35.13;;
13685;SDS011;6915;48.296;8.874;2023-01-25T03:49:31;102.20;;;32.47;;
13685;SDS011;6915;48.296;8.874;2023-01-25T03:52:00;110.00;;;33.13;;
13685;SDS011;6915;48.296;8.874;2023-01-25T03:54:28;107.23;;;32.80;;
13685;SDS011;6915;48.296;8.874;2023-01-25T03:56:57;97.73;;;30.57;;
13685;SDS011;6915;48.296;8.874;2023-01-25T03:59:26;88.50;;;31.70;;
13685;SDS011;6915;48.296;8.874;2023-01-25T05:51:32;35.30;;;18.80;;
13685;SDS011;6915;48.296;8.874;2023-01-25T05:54:01;30.03;;;16.60;;
13685;SDS011;6915;48.296;8.874;2023-01-25T05:56:30;22.53;;;14.23;;
13685;SDS011;6915;48.296;8.874;2023-01-25T05:58:59;20.57;;;14.10;;
13685;SDS011;6915;48.296;8.874;2023-01-25T06:01:28;29.33;;;17.00;;
13685;SDS011;6915;48.296;8.874;2023-01-25T06:03:58;31.17;;;17.80;;
13685;SDS011;6915;48.296;8.874;2023-01-25T06:06:28;35.73;;;18.93;;
13685;SDS011;6915;48.296;8.874;2023-01-25T06:08:59;32.43;;;18.50;;
13685;SDS011;6915;48.296;8.874;2023-01-25T06:11:29;37.23;;;20.33;;
13685;SDS011;6915;48.296;8.874;2023-01-25T06:13:59;36.73;;;20.33;;
13685;SDS011;6915;48.296;8.874;2023-01-25T06:16:27;39.23;;;20.43;;
13685;SDS011;6915;48.296;8.874;2023-01-25T06:18:56;37.80;;;19.40;;
13685;SDS011;6915;48.296;8.874;2023-01-25T06:21:30;30.37;;;17.97;;
13685;SDS011;6915;48.296;8.874;2023-01-25T07:15:53;33.40;;;19.57;;
13685;SDS011;6915;48.296;8.874;2023-01-25T07:18:22;36.33;;;20.33;;
13685;SDS011;6915;48.296;8.874;2023-01-25T07:21:01;36.20;;;20.93;;
13685;SDS011;6915;48.296;8.874;2023-01-25T07:23:33;35.83;;;20.20;;
13685;SDS011;6915;48.296;8.874;2023-01-25T11:33:18;19.87;;;13.03;;
13685;SDS011;6915;48.296;8.874;2023-01-25T11:36:01;19.57;;;12.60;;
13685;SDS011;6915;48.296;8.874;2023-01-25T11:38:52;17.77;;;11.47;;
13685;SDS011;6915;48.296;8.874;2023-01-25T11:47:44;19.50;;;12.60;;
13685;SDS011;6915;48.296;8.874;2023-01-25T11:50:23;20.63;;;12.67;;
13685;SDS011;6915;48.296;8.874;2023-01-25T11:53:01;18.37;;;11.93;;
13685;SDS011;6915;48.296;8.874;2023-01-25T11:55:43;22.27;;;13.93;;
13685;SDS011;6915;48.296;8.874;2023-01-25T11:58:18;19.27;;;12.40;;
13685;SDS011;6915;48.296;8.874;2023-01-25T12:01:09;20.23;;;12.67;;
13685;SDS011;6915;48.296;8.874;2023-01-25T12:06:51;21.20;;;13.03;;
13685;SDS011;6915;48.296;8.874;2023-01-25T12:12:21;20.77;;;12.50;;
13685;SDS011;6915;48.296;8.874;2023-01-25T12:15:05;17.73;;;11.93;;
13685;SDS011;6915;48.296;8.874;2023-01-25T12:18:01;18.27;;;12.07;;
13685;SDS011;6915;48.296;8.874;2023-01-25T12:20:57;18.63;;;12.20;;
13685;SDS011;6915;48.296;8.874;2023-01-25T12:23:34;17.70;;;11.63;;
13685;SDS011;6915;48.296;8.874;2023-01-25T12:26:11;16.93;;;10.87;;
13685;SDS011;6915;48.296;8.874;2023-01-25T12:28:46;17.90;;;11.90;;
13685;SDS011;6915;48.296;8.874;2023-01-25T12:31:21;19.90;;;11.63;;
13685;SDS011;6915;48.296;8.874;2023-01-25T12:33:55;19.73;;;11.97;;
13685;SDS011;6915;48.296;8.874;2023-01-25T12:36:27;17.73;;;12.00;;
13685;SDS011;6915;48.296;8.874;2023-01-25T12:38:59;16.63;;;11.13;;
13685;SDS011;6915;48.296;8.874;2023-01-25T12:41:34;18.47;;;12.37;;
13685;SDS011;6915;48.296;8.874;2023-01-25T12:44:13;18.57;;;11.93;;
13685;SDS011;6915;48.296;8.874;2023-01-25T12:46:50;19.00;;;12.47;;
13685;SDS011;6915;48.296;8.874;2023-01-25T12:49:25;19.47;;;11.83;;
13685;SDS011;6915;48.296;8.874;2023-01-25T12:51:59;21.00;;;12.47;;
13685;SDS011;6915;48.296;8.874;2023-01-25T12:54:32;20.53;;;12.37;;
13685;SDS011;6915;48.296;8.874;2023-01-25T12:57:08;20.20;;;13.33;;
13685;SDS011;6915;48.296;8.874;2023-01-25T12:59:45;23.37;;;12.93;;
13685;SDS011;6915;48.296;8.874;2023-01-25T13:02:24;20.60;;;12.93;;
13685;SDS011;6915;48.296;8.874;2023-01-25T13:05:01;21.77;;;12.57;;
13685;SDS011;6915;48.296;8.874;2023-01-25T13:07:41;21.33;;;13.03;;
13685;SDS011;6915;48.296;8.874;2023-01-25T13:10:22;19.43;;;12.70;;
13685;SDS011;6915;48.296;8.874;2023-01-25T13:12:55;20.17;;;12.03;;
13685;SDS011;6915;48.296;8.874;2023-01-25T13:15:37;24.00;;;13.57;;
13685;SDS011;6915;48.296;8.874;2023-01-25T13:21:04;22.90;;;12.70;;
13685;SDS011;6915;48.296;8.874;2023-01-25T13:23:37;24.03;;;14.40;;
13685;SDS011;6915;48.296;8.874;2023-01-25T13:35:24;18.10;;;11.07;;
13685;SDS011;6915;48.296;8.874;2023-01-25T13:37:57;16.50;;;10.90;;
13685;SDS011;6915;48.296;8.874;2023-01-25T13:40:29;17.63;;;11.30;;
13685;SDS011;6915;48.296;8.874;2023-01-25T13:42:59;20.63;;;11.80;;
13685;SDS011;6915;48.296;8.874;2023-01-25T13:45:32;18.30;;;11.53;;
13685;SDS011;6915;48.296;8.874;2023-01-25T13:48:04;18.33;;;11.27;;
13685;SDS011;6915;48.296;8.874;2023-01-25T13:50:41;17.10;;;11.33;;
13685;SDS011;6915;48.296;8.874;2023-01-25T13:53:18;17.50;;;10.83;;
13685;SDS011;6915;48.296;8.874;2023-01-25T13:55:49;20.77;;;12.23;;
13685;SDS011;6915;48.296;8.874;2023-01-25T13:58:19;18.83;;;10.50;;
13685;SDS011;6915;48.296;8.874;2023-01-25T14:00:52;20.23;;;11.80;;
13685;SDS011;6915;48.296;8.874;2023-01-25T14:03:24;20.73;;;11.73;;
13685;SDS011;6915;48.296;8.874;2023-01-25T14:05:55;17.93;;;11.30;;
13685;SDS011;6915;48.296;8.874;2023-01-25T14:08:28;16.63;;;10.93;;
13685;SDS011;6915;48.296;8.874;2023-01-25T14:10:58;17.63;;;11.20;;
13685;SDS011;6915;48.296;8.874;2023-01-25T14:13:26;18.20;;;11.40;;
13685;SDS011;6915;48.296;8.874;2023-01-25T14:15:57;21.17;;;12.50;;
13685;SDS011;6915;48.296;8.874;2023-01-25T14:18:30;21.13;;;12.23;;
13685;SDS011;6915;48.296;8.874;2023-01-25T14:21:09;20.23;;;11.20;;
13685;SDS011;6915;48.296;8.874;2023-01-25T14:23:39;17.87;;;11.23;;
13685;SDS011;6915;48.296;8.874;2023-01-25T14:26:19;20.07;;;11.43;;
13685;SDS011;6915;48.296;8.874;2023-01-25T14:28:49;20.63;;;12.63;;
13685;SDS011;6915;48.296;8.874;2023-01-25T14:31:23;21.60;;;12.50;;
13685;SDS011;6915;48.296;8.874;2023-01-25T14:33:56;19.33;;;12.40;;
13685;SDS011;6915;48.296;8.874;2023-01-25T14:36:28;19.83;;;12.30;;
13685;SDS011;6915;48.296;8.874;2023-01-25T14:38:58;19.00;;;11.60;;
13685;SDS011;6915;48.296;8.874;2023-01-25T14:41:28;20.73;;;12.67;;
13685;SDS011;6915;48.296;8.874;2023-01-25T14:44:00;19.13;;;12.30;;
13685;SDS011;6915;48.296;8.874;2023-01-25T14:46:36;22.13;;;13.13;;
13685;SDS011;6915;48.296;8.874;2023-01-25T14:49:13;20.13;;;12.37;;
13685;SDS011;6915;48.296;8.874;2023-01-25T14:51:49;21.30;;;13.07;;
13685;SDS011;6915;48.296;8.874;2023-01-25T14:54:21;20.30;;;12.63;;
13685;SDS011;6915;48.296;8.874;2023-01-25T14:56:55;22.10;;;12.63;;
13685;SDS011;6915;48.296;8.874;2023-01-25T14:59:30;21.43;;;12.60;;
13685;SDS011;6915;48.296;8.874;2023-01-25T15:02:03;20.90;;;12.20;;
13685;SDS011;6915;48.296;8.874;2023-01-25T15:04:49;18.70;;;11.77;;
13685;SDS011;6915;48.296;8.874;2023-01-25T15:07:35;19.57;;;12.50;;
13685;SDS011;6915;48.296;8.874;2023-01-25T15:10:15;18.33;;;11.83;;
13685;SDS011;6915;48.296;8.874;2023-01-25T15:15:20;21.50;;;12.67;;
13685;SDS011;6915;48.296;8.874;2023-01-25T15:17:53;21.10;;;13.50;;
13685;SDS011;6915;48.296;8.874;2023-01-25T15:20:27;21.57;;;13.23;;
13685;SDS011;6915;48.296;8.874;2023-01-25T15:23:07;20.77;;;12.53;;
13685;SDS011;6915;48.296;8.874;2023-01-25T15:25:51;18.50;;;12.20;;
13685;SDS011;6915;48.296;8.874;2023-01-25T15:28:22;23.93;;;13.53;;
13685;SDS011;6915;48.296;8.874;2023-01-25T15:30:51;21.80;;;13.23;;
13685;SDS011;6915;48.296;8.874;2023-01-25T15:33:23;24.13;;;13.60;;
13685;SDS011;6915;48.296;8.874;2023-01-25T15:35:56;23.33;;;13.00;;
13685;SDS011;6915;48.296;8.874;2023-01-25T15:38:25;22.53;;;13.27;;
13685;SDS011;6915;48.296;8.874;2023-01-25T15:40:54;24.73;;;14.03;;
13685;SDS011;6915;48.296;8.874;2023-01-25T15:43:25;22.53;;;12.63;;
13685;SDS011;6915;48.296;8.874;2023-01-25T15:45:54;22.33;;;13.33;;
13685;SDS011;6915;48.296;8.874;2023-01-25T15:48:26;23.43;;;13.40;;
13685;SDS011;6915;48.296;8.874;2023-01-25T15:50:58;23.40;;;13.73;;
13685;SDS011;6915;48.296;8.874;2023-01-25T15:53:29;22.53;;;13.37;;
13685;SDS011;6915;48.296;8.874;2023-01-25T15:55:58;22.50;;;13.80;;
13685;SDS011;6915;48.296;8.874;2023-01-25T15:58:29;24.27;;;14.10;;
13685;SDS011;6915;48.296;8.874;2023-01-25T16:01:00;23.67;;;13.77;;
13685;SDS011;6915;48.296;8.874;2023-01-25T16:03:30;24.87;;;13.70;;
13685;SDS011;6915;48.296;8.874;2023-01-25T16:06:00;24.93;;;14.60;;
13685;SDS011;6915;48.296;8.874;2023-01-25T16:08:30;23.33;;;14.67;;
13685;SDS011;6915;48.296;8.874;2023-01-25T16:11:00;26.90;;;14.97;;
13685;SDS011;6915;48.296;8.874;2023-01-25T16:13:28;24.73;;;14.17;;
13685;SDS011;6915;48.296;8.874;2023-01-25T16:15:57;21.33;;;12.80;;
13685;SDS011;6915;48.296;8.874;2023-01-25T16:18:25;26.60;;;13.87;;
13685;SDS011;6915;48.296;8.874;2023-01-25T16:20:55;23.23;;;13.47;;
13685;SDS011;6915;48.296;8.874;2023-01-25T16:23:24;24.17;;;14.07;;
13685;SDS011;6915;48.296;8.874;2023-01-25T16:25:53;23.53;;;13.67;;
13685;SDS011;6915;48.296;8.874;2023-01-25T16:28:21;24.03;;;14.23;;
13685;SDS011;6915;48.296;8.874;2023-01-25T16:30:50;24.90;;;13.77;;
13685;SDS011;6915;48.296;8.874;2023-01-25T16:33:19;24.67;;;14.70;;
13685;SDS011;6915;48.296;8.874;2023-01-25T16:35:49;27.77;;;15.93;;
13685;SDS011;6915;48.296;8.874;2023-01-25T16:38:35;23.57;;;13.83;;
13685;SDS011;6915;48.296;8.874;2023-01-25T16:41:04;23.77;;;14.97;;
13685;SDS011;6915;48.296;8.874;2023-01-25T16:44:25;22.20;;;13.27;;
13685;SDS011;6915;48.296;8.874;2023-01-25T16:47:09;24.90;;;14.63;;
13685;SDS011;6915;48.296;8.874;2023-01-25T16:49:40;24.17;;;13.43;;
13685;SDS011;6915;48.296;8.874;2023-01-25T16:52:12;22.27;;;12.93;;
13685;SDS011;6915;48.296;8.874;2023-01-25T16:54:41;24.37;;;14.33;;
13685;SDS011;6915;48.296;8.874;2023-01-25T16:57:10;21.67;;;14.23;;
13685;SDS011;6915;48.296;8.874;2023-01-25T16:59:39;23.40;;;14.73;;
13685;SDS011;6915;48.296;8.874;2023-01-25T17:02:09;25.27;;;14.47;;
13685;SDS011;6915;48.296;8.874;2023-01-25T17:04:38;24.13;;;14.00;;
13685;SDS011;6915;48.296;8.874;2023-01-25T17:07:06;24.90;;;14.53;;
13685;SDS011;6915;48.296;8.874;2023-01-25T17:09:37;21.97;;;13.37;;
13685;SDS011;6915;48.296;8.874;2023-01-25T17:12:10;29.50;;;16.77;;
13685;SDS011;6915;48.296;8.874;2023-01-25T17:14:39;25.10;;;15.60;;
13685;SDS011;6915;48.296;8.874;2023-01-25T17:17:07;23.07;;;13.97;;
13685;SDS011;6915;48.296;8.874;2023-01-25T17:19:36;26.83;;;15.17;;
13685;SDS011;6915;48.296;8.874;2023-01-25T17:22:05;28.07;;;15.50;;
13685;SDS011;6915;48.296;8.874;2023-01-25T17:24:34;24.80;;;15.10;;
13685;SDS011;6915;48.296;8.874;2023-01-25T17:27:04;26.10;;;15.83;;
13685;SDS011;6915;48.296;8.874;2023-01-25T17:29:33;27.77;;;16.23;;
13685;SDS011;6915;48.296;8.874;2023-01-25T17:32:02;27.67;;;16.47;;
13685;SDS011;6915;48.296;8.874;2023-01-25T17:34:30;28.80;;;16.57;;
13685;SDS011;6915;48.296;8.874;2023-01-25T17:36:59;28.50;;;16.43;;
13685;SDS011;6915;48.296;8.874;2023-01-25T17:39:28;27.70;;;17.37;;
13685;SDS011;6915;48.296;8.874;2023-01-25T17:41:57;26.77;;;16.83;;
13685;SDS011;6915;48.296;8.874;2023-01-25T17:44:27;27.33;;;16.53;;
13685;SDS011;6915;48.296;8.874;2023-01-25T17:46:56;25.30;;;15.83;;
13685;SDS011;6915;48.296;8.874;2023-01-25T17:49:24;27.57;;;15.73;;
13685;SDS011;6915;48.296;8.874;2023-01-25T17:51:55;24.10;;;15.30;;
13685;SDS011;6915;48.296;8.874;2023-01-25T17:54:38;23.17;;;14.03;;
13685;SDS011;6915;48.296;8.874;2023-01-25T17:57:11;22.17;;;13.97;;
13685;SDS011;6915;48.296;8.874;2023-01-25T18:00:06;18.57;;;12.67;;
13685;SDS011;6915;48.296;8.874;2023-01-25T18:02:50;15.50;;;10.73;;
13685;SDS011;6915;48.296;8.874;2023-01-25T18:09:46;16.67;;;11.37;;
13685;SDS011;6915;48.296;8.874;2023-01-25T18:12:06;17.03;;;11.70;;
13685;SDS011;6915;48.296;8.874;2023-01-25T18:15:08;15.00;;;10.30;;
13685;SDS011;6915;48.296;8.874;2023-01-25T18:17:47;16.10;;;10.60;;
13685;SDS011;6915;48.296;8.874;2023-01-25T18:21:00;14.30;;;9.30;;
13685;SDS011;6915;48.296;8.874;2023-01-25T18:23:47;15.47;;;9.80;;
13685;SDS011;6915;48.296;8.874;2023-01-25T18:26:58;14.27;;;9.80;;
13685;SDS011;6915;48.296;8.874;2023-01-25T18:30:28;13.93;;;10.03;;
13685;SDS011;6915;48.296;8.874;2023-01-25T18:44:45;11.77;;;8.97;;
13685;SDS011;6915;48.296;8.874;2023-01-25T18:49:25;14.80;;;10.67;;
13685;SDS011;6915;48.296;8.874;2023-01-25T18:52:24;16.97;;;11.60;;
13685;SDS011;6915;48.296;8.874;2023-01-25T20:23:00;16.73;;;11.70;;
13685;SDS011;6915;48.296;8.874;2023-01-25T20:25:29;32.67;;;18.10;;
13685;SDS011;6915;48.296;8.874;2023-01-25T20:27:59;39.67;;;21.87;;
13685;SDS011;6915;48.296;8.874;2023-01-25T20:30:28;34.60;;;19.57;;
13685;SDS011;6915;48.296;8.874;2023-01-25T20:33:00;25.40;;;15.63;;
13685;SDS011;6915;48.296;8.874;2023-01-25T20:35:28;34.53;;;19.00;;
13685;SDS011;6915;48.296;8.874;2023-01-25T20:37:57;17.53;;;12.37;;
13685;SDS011;6915;48.296;8.874;2023-01-25T20:40:27;15.23;;;11.10;;
13685;SDS011;6915;48.296;8.874;2023-01-25T20:43:13;14.90;;;11.03;;
13685;SDS011;6915;48.296;8.874;2023-01-25T20:46:24;15.67;;;11.30;;
13685;SDS011;6915;48.296;8.874;2023-01-25T20:49:06;16.07;;;11.47;;
13685;SDS011;6915;48.296;8.874;2023-01-25T20:51:56;17.03;;;11.90;;
13685;SDS011;6915;48.296;8.874;2023-01-25T20:54:57;17.70;;;12.37;;
13685;SDS011;6915;48.296;8.874;2023-01-25T20:57:27;18.93;;;12.77;;
13685;SDS011;6915;48.296;8.874;2023-01-25T20:59:56;18.03;;;12.53;;
13685;SDS011;6915;48.296;8.874;2023-01-25T21:02:25;20.27;;;13.47;;
13685;SDS011;6915;48.296;8.874;2023-01-25T21:04:54;17.60;;;12.57;;
13685;SDS011;6915;48.296;8.874;2023-01-25T21:07:23;17.43;;;12.33;;
13685;SDS011;6915;48.296;8.874;2023-01-25T21:09:52;19.00;;;12.83;;
13685;SDS011;6915;48.296;8.874;2023-01-25T21:15:08;18.93;;;12.83;;
13685;SDS011;6915;48.296;8.874;2023-01-25T21:18:08;18.70;;;12.80;;
13685;SDS011;6915;48.296;8.874;2023-01-25T21:20:37;20.37;;;13.27;;
13685;SDS011;6915;48.296;8.874;2023-01-25T21:23:05;19.53;;;13.90;;
13685;SDS011;6915;48.296;8.874;2023-01-25T21:25:34;17.10;;;12.30;;
13685;SDS011;6915;48.296;8.874;2023-01-25T21:28:03;19.00;;;12.73;;
13685;SDS011;6915;48.296;8.874;2023-01-25T21:30:33;18.10;;;12.00;;
13685;SDS011;6915;48.296;8.874;2023-01-25T21:33:02;16.20;;;11.47;;
13685;SDS011;6915;48.296;8.874;2023-01-25T21:35:31;17.07;;;12.00;;
13685;SDS011;6915;48.296;8.874;2023-01-25T21:38:00;17.63;;;12.60;;
13685;SDS011;6915;48.296;8.874;2023-01-25T21:40:29;15.73;;;12.20;;
13685;SDS011;6915;48.296;8.874;2023-01-25T21:42:58;17.63;;;12.60;;
13685;SDS011;6915;48.296;8.874;2023-01-25T21:45:27;17.97;;;13.00;;
13685;SDS011;6915;48.296;8.874;2023-01-25T21:48:15;18.70;;;13.20;;
13685;SDS011;6915;48.296;8.874;2023-01-25T21:51:05;13.87;;;10.63;;
13685;SDS011;6915;48.296;8.874;2023-01-25T21:53:53;16.13;;;11.90;;
13685;SDS011;6915;48.296;8.874;2023-01-25T21:56:23;17.30;;;11.47;;
13685;SDS011;6915;48.296;8.874;2023-01-25T21:58:53;16.90;;;12.10;;
13685;SDS011;6915;48.296;8.874;2023-01-25T22:01:24;17.67;;;12.43;;
13685;SDS011;6915;48.296;8.874;2023-01-25T22:03:57;13.63;;;10.97;;
13685;SDS011;6915;48.296;8.874;2023-01-25T22:06:30;16.60;;;12.07;;
13685;SDS011;6915;48.296;8.874;2023-01-25T22:08:58;17.67;;;12.33;;
13685;SDS011;6915;48.296;8.874;2023-01-25T22:11:29;16.33;;;11.47;;
13685;SDS011;6915;48.296;8.874;2023-01-25T23:26:24;18.53;;;12.63;;
13685;SDS011;6915;48.296;8.874;2023-01-25T23:28:54;15.93;;;11.33;;
13685;SDS011;6915;48.296;8.874;2023-01-25T23:31:23;19.43;;;12.87;;
13685;SDS011;6915;48.296;8.874;2023-01-25T23:33:53;18.03;;;12.83;;
13685;SDS011;6915;48.296;8.874;2023-01-25T23:36:24;22.37;;;13.63;;
13685;SDS011;6915;48.296;8.874;2023-01-25T23:38:55;18.77;;;13.23;;
13685;SDS011;6915;48.296;8.874;2023-01-25T23:41:27;18.67;;;12.73;;
13685;SDS011;6915;48.296;8.874;2023-01-25T23:43:56;19.77;;;13.90;;
13685;SDS011;6915;48.296;8.874;2023-01-25T23:46:26;19.40;;;13.90;;
13685;SDS011;6915;48.296;8.874;2023-01-25T23:48:54;24.73;;;16.53;;
13685;SDS011;6915;48.296;8.874;2023-01-25T23:51:23;20.67;;;14.03;;
13685;SDS011;6915;48.296;8.874;2023-01-25T23:53:51;20.57;;;13.87;;
13685;SDS011;6915;48.296;8.874;2023-01-25T23:56:21;19.60;;;13.77;;
13685;SDS011;6915;48.296;8.874;2023-01-25T23:58:52;19.00;;;13.67;;
